sensor_id;sensor_type;location;lat;lon;timestamp;temperature;humidity
37052;DHT22;22964;52.272;13.356;2024-03-25T10:26:43;8.30;95.50
37052;DHT22;22964;52.272;13.356;2024-03-25T10:29:08;8.40;95.60
37052;DHT22;22964;52.272;13.356;2024-03-25T10:31:36;8.80;94.80
37052;DHT22;22964;52.272;13.356;2024-03-25T10:34:02;9.20;93.70
37052;DHT22;22964;52.272;13.356;2024-03-25T10:36:28;9.70;93.20
37052;DHT22;22964;52.272;13.356;2024-03-25T10:39:01;10.10;91.80
37052;DHT22;22964;52.272;13.356;2024-03-25T10:41:34;10.50;90.80
37052;DHT22;22964;52.272;13.356;2024-03-25T10:44:04;10.80;90.40
37052;DHT22;22964;52.272;13.356;2024-03-25T10:46:33;11.20;89.40
37052;DHT22;22964;52.272;13.356;2024-03-25T10:49:12;11.50;88.60
37052;DHT22;22964;52.272;13.356;2024-03-25T10:51:38;11.70;87.50
37052;DHT22;22964;52.272;13.356;2024-03-25T10:54:05;12.10;88.00
37052;DHT22;22964;52.272;13.356;2024-03-25T10:56:31;12.30;85.30
37052;DHT22;22964;52.272;13.356;2024-03-25T10:58:57;12.60;84.10
37052;DHT22;22964;52.272;13.356;2024-03-25T11:01:24;12.90;83.00
37052;DHT22;22964;52.272;13.356;2024-03-25T11:03:50;13.00;80.10
37052;DHT22;22964;52.272;13.356;2024-03-25T11:06:16;13.20;80.80
37052;DHT22;22964;52.272;13.356;2024-03-25T11:08:42;13.20;79.00
37052;DHT22;22964;52.272;13.356;2024-03-25T11:11:13;13.30;77.40
37052;DHT22;22964;52.272;13.356;2024-03-25T11:13:39;13.40;77.90
37052;DHT22;22964;52.272;13.356;2024-03-25T11:16:06;13.40;75.40
37052;DHT22;22964;52.272;13.356;2024-03-25T11:18:33;13.40;75.10
37052;DHT22;22964;52.272;13.356;2024-03-25T11:21:06;13.40;74.30
37052;DHT22;22964;52.272;13.356;2024-03-25T11:23:42;13.50;74.10
37052;DHT22;22964;52.272;13.356;2024-03-25T11:26:21;13.60;75.70
37052;DHT22;22964;52.272;13.356;2024-03-25T11:28:48;13.70;77.20
37052;DHT22;22964;52.272;13.356;2024-03-25T11:31:15;13.90;77.50
37052;DHT22;22964;52.272;13.356;2024-03-25T11:33:41;14.10;74.20
37052;DHT22;22964;52.272;13.356;2024-03-25T11:36:07;14.20;74.10
37052;DHT22;22964;52.272;13.356;2024-03-25T11:38:33;14.30;74.50
37052;DHT22;22964;52.272;13.356;2024-03-25T11:41:00;14.40;74.50
37052;DHT22;22964;52.272;13.356;2024-03-25T11:43:26;14.40;73.70
37052;DHT22;22964;52.272;13.356;2024-03-25T11:45:52;14.50;72.90
37052;DHT22;22964;52.272;13.356;2024-03-25T11:48:19;14.50;70.70
37052;DHT22;22964;52.272;13.356;2024-03-25T11:50:46;14.50;71.40
37052;DHT22;22964;52.272;13.356;2024-03-25T11:53:17;14.50;69.50
37052;DHT22;22964;52.272;13.356;2024-03-25T11:55:49;14.50;69.70
37052;DHT22;22964;52.272;13.356;2024-03-25T11:58:15;14.50;67.40
37052;DHT22;22964;52.272;13.356;2024-03-25T12:00:45;14.60;69.60
37052;DHT22;22964;52.272;13.356;2024-03-25T12:03:13;14.70;68.30
37052;DHT22;22964;52.272;13.356;2024-03-25T12:05:41;14.80;65.50
37052;DHT22;22964;52.272;13.356;2024-03-25T12:08:09;15.00;66.80
37052;DHT22;22964;52.272;13.356;2024-03-25T12:10:36;15.10;66.30
37052;DHT22;22964;52.272;13.356;2024-03-25T12:13:23;15.10;64.60
37052;DHT22;22964;52.272;13.356;2024-03-25T12:15:50;15.20;63.60
37052;DHT22;22964;52.272;13.356;2024-03-25T12:18:17;15.20;65.10
37052;DHT22;22964;52.272;13.356;2024-03-25T12:20:47;15.20;66.20
37052;DHT22;22964;52.272;13.356;2024-03-25T12:23:13;15.30;64.30
37052;DHT22;22964;52.272;13.356;2024-03-25T12:25:40;15.40;63.90
37052;DHT22;22964;52.272;13.356;2024-03-25T12:28:08;15.40;61.40
37052;DHT22;22964;52.272;13.356;2024-03-25T12:30:48;15.40;62.40
37052;DHT22;22964;52.272;13.356;2024-03-25T12:33:15;15.40;61.30
37052;DHT22;22964;52.272;13.356;2024-03-25T12:35:41;15.40;61.40
37052;DHT22;22964;52.272;13.356;2024-03-25T12:38:07;15.30;61.90
37052;DHT22;22964;52.272;13.356;2024-03-25T12:40:33;15.30;61.00
37052;DHT22;22964;52.272;13.356;2024-03-25T12:42:59;15.30;61.40
37052;DHT22;22964;52.272;13.356;2024-03-25T12:45:24;15.20;61.70
37052;DHT22;22964;52.272;13.356;2024-03-25T12:47:51;15.20;61.40
37052;DHT22;22964;52.272;13.356;2024-03-25T12:50:17;15.20;62.00
37052;DHT22;22964;52.272;13.356;2024-03-25T12:52:44;15.20;60.60
37052;DHT22;22964;52.272;13.356;2024-03-25T12:55:10;15.20;61.80
37052;DHT22;22964;52.272;13.356;2024-03-25T12:57:36;15.10;61.80
37052;DHT22;22964;52.272;13.356;2024-03-25T13:00:02;15.10;60.20
37052;DHT22;22964;52.272;13.356;2024-03-25T13:02:30;15.10;60.80
37052;DHT22;22964;52.272;13.356;2024-03-25T13:04:56;15.00;61.20
37052;DHT22;22964;52.272;13.356;2024-03-25T13:07:22;15.00;61.50
37052;DHT22;22964;52.272;13.356;2024-03-25T13:09:48;14.90;61.40
37052;DHT22;22964;52.272;13.356;2024-03-25T13:12:13;14.90;60.60
37052;DHT22;22964;52.272;13.356;2024-03-25T13:14:39;14.80;60.60
37052;DHT22;22964;52.272;13.356;2024-03-25T13:17:05;14.80;61.30
37052;DHT22;22964;52.272;13.356;2024-03-25T13:19:31;14.70;60.60
37052;DHT22;22964;52.272;13.356;2024-03-25T13:21:56;14.70;61.10
37052;DHT22;22964;52.272;13.356;2024-03-25T13:24:22;14.70;61.30
37052;DHT22;22964;52.272;13.356;2024-03-25T13:26:48;14.70;60.80
37052;DHT22;22964;52.272;13.356;2024-03-25T13:29:14;14.60;61.80
37052;DHT22;22964;52.272;13.356;2024-03-25T13:31:40;14.70;63.00
37052;DHT22;22964;52.272;13.356;2024-03-25T13:34:06;14.70;61.60
37052;DHT22;22964;52.272;13.356;2024-03-25T13:36:32;14.70;60.80
37052;DHT22;22964;52.272;13.356;2024-03-25T13:38:57;14.70;61.00
37052;DHT22;22964;52.272;13.356;2024-03-25T13:41:23;14.80;60.40
37052;DHT22;22964;52.272;13.356;2024-03-25T13:43:50;14.80;61.20
37052;DHT22;22964;52.272;13.356;2024-03-25T13:46:16;14.80;60.60
37052;DHT22;22964;52.272;13.356;2024-03-25T13:48:42;14.90;60.20
37052;DHT22;22964;52.272;13.356;2024-03-25T13:51:07;14.90;60.70
37052;DHT22;22964;52.272;13.356;2024-03-25T13:53:33;15.00;61.50
37052;DHT22;22964;52.272;13.356;2024-03-25T13:55:59;15.10;60.60
37052;DHT22;22964;52.272;13.356;2024-03-25T13:58:26;15.20;61.30
37052;DHT22;22964;52.272;13.356;2024-03-25T14:00:52;15.30;62.30
37052;DHT22;22964;52.272;13.356;2024-03-25T14:03:17;15.40;60.90
37052;DHT22;22964;52.272;13.356;2024-03-25T14:05:44;15.50;59.90
37052;DHT22;22964;52.272;13.356;2024-03-25T14:08:10;15.50;60.10
37052;DHT22;22964;52.272;13.356;2024-03-25T14:10:36;15.60;60.60
37052;DHT22;22964;52.272;13.356;2024-03-25T14:13:02;15.60;60.20
37052;DHT22;22964;52.272;13.356;2024-03-25T14:15:29;15.60;60.20
37052;DHT22;22964;52.272;13.356;2024-03-25T14:17:55;15.70;59.60
37052;DHT22;22964;52.272;13.356;2024-03-25T14:20:20;15.70;58.90
37052;DHT22;22964;52.272;13.356;2024-03-25T14:22:46;15.80;59.40
37052;DHT22;22964;52.272;13.356;2024-03-25T14:25:12;15.80;59.40
37052;DHT22;22964;52.272;13.356;2024-03-25T14:27:37;15.90;59.00
37052;DHT22;22964;52.272;13.356;2024-03-25T14:30:03;15.90;58.80
37052;DHT22;22964;52.272;13.356;2024-03-25T14:32:29;15.90;58.70
37052;DHT22;22964;52.272;13.356;2024-03-25T14:34:55;15.90;58.10
37052;DHT22;22964;52.272;13.356;2024-03-25T14:37:22;15.90;58.90
37052;DHT22;22964;52.272;13.356;2024-03-25T14:39:47;15.90;58.50
37052;DHT22;22964;52.272;13.356;2024-03-25T14:42:13;15.90;58.40
37052;DHT22;22964;52.272;13.356;2024-03-25T14:44:39;16.00;59.20
37052;DHT22;22964;52.272;13.356;2024-03-25T14:47:05;16.00;59.10
37052;DHT22;22964;52.272;13.356;2024-03-25T14:49:31;16.00;57.90
37052;DHT22;22964;52.272;13.356;2024-03-25T14:51:57;16.10;58.40
37052;DHT22;22964;52.272;13.356;2024-03-25T14:54:23;16.10;58.20
37052;DHT22;22964;52.272;13.356;2024-03-25T14:56:48;16.00;58.30
37052;DHT22;22964;52.272;13.356;2024-03-25T14:59:14;16.00;57.70
37052;DHT22;22964;52.272;13.356;2024-03-25T15:01:40;15.90;57.00
37052;DHT22;22964;52.272;13.356;2024-03-25T15:04:06;15.80;57.30
37052;DHT22;22964;52.272;13.356;2024-03-25T15:06:33;15.80;57.50
37052;DHT22;22964;52.272;13.356;2024-03-25T15:08:59;15.70;58.10
37052;DHT22;22964;52.272;13.356;2024-03-25T15:11:26;15.60;58.90
37052;DHT22;22964;52.272;13.356;2024-03-25T15:13:52;15.60;59.30
37052;DHT22;22964;52.272;13.356;2024-03-25T15:16:18;15.60;59.40
37052;DHT22;22964;52.272;13.356;2024-03-25T15:18:43;15.50;58.60
37052;DHT22;22964;52.272;13.356;2024-03-25T15:21:09;15.50;58.00
37052;DHT22;22964;52.272;13.356;2024-03-25T15:23:35;15.50;57.40
37052;DHT22;22964;52.272;13.356;2024-03-25T15:26:01;15.50;57.30
37052;DHT22;22964;52.272;13.356;2024-03-25T15:28:27;15.40;56.80
37052;DHT22;22964;52.272;13.356;2024-03-25T15:30:54;15.40;56.40
37052;DHT22;22964;52.272;13.356;2024-03-25T15:33:20;15.40;56.20
37052;DHT22;22964;52.272;13.356;2024-03-25T15:35:45;15.30;56.10
37052;DHT22;22964;52.272;13.356;2024-03-25T15:38:11;15.20;56.10
37052;DHT22;22964;52.272;13.356;2024-03-25T15:40:37;15.20;55.50
37052;DHT22;22964;52.272;13.356;2024-03-25T15:43:03;15.10;56.60
37052;DHT22;22964;52.272;13.356;2024-03-25T15:45:29;15.10;56.80
37052;DHT22;22964;52.272;13.356;2024-03-25T15:47:56;15.00;56.80
37052;DHT22;22964;52.272;13.356;2024-03-25T15:50:21;14.90;57.10
37052;DHT22;22964;52.272;13.356;2024-03-25T15:52:50;14.80;57.40
37052;DHT22;22964;52.272;13.356;2024-03-25T15:55:16;14.80;57.60
37052;DHT22;22964;52.272;13.356;2024-03-25T15:57:42;14.80;58.00
37052;DHT22;22964;52.272;13.356;2024-03-25T16:00:08;14.70;57.80
37052;DHT22;22964;52.272;13.356;2024-03-25T16:02:38;14.70;57.70
37052;DHT22;22964;52.272;13.356;2024-03-25T16:05:04;14.60;58.40
37052;DHT22;22964;52.272;13.356;2024-03-25T16:07:30;14.60;57.40
37052;DHT22;22964;52.272;13.356;2024-03-25T16:09:56;14.50;57.30
37052;DHT22;22964;52.272;13.356;2024-03-25T16:12:23;14.40;57.40
37052;DHT22;22964;52.272;13.356;2024-03-25T16:14:49;14.40;57.60
37052;DHT22;22964;52.272;13.356;2024-03-25T16:17:15;14.30;57.70
37052;DHT22;22964;52.272;13.356;2024-03-25T16:19:41;14.20;57.50
37052;DHT22;22964;52.272;13.356;2024-03-25T16:22:06;14.10;57.50
37052;DHT22;22964;52.272;13.356;2024-03-25T16:24:32;14.10;58.00
37052;DHT22;22964;52.272;13.356;2024-03-25T16:26:58;14.00;58.10
37052;DHT22;22964;52.272;13.356;2024-03-25T16:29:24;13.90;58.00
37052;DHT22;22964;52.272;13.356;2024-03-25T16:31:50;13.80;58.30
37052;DHT22;22964;52.272;13.356;2024-03-25T16:34:16;13.80;59.10
37052;DHT22;22964;52.272;13.356;2024-03-25T16:36:42;13.70;58.50
37052;DHT22;22964;52.272;13.356;2024-03-25T16:39:07;13.60;58.70
37052;DHT22;22964;52.272;13.356;2024-03-25T16:41:35;13.60;58.90
37052;DHT22;22964;52.272;13.356;2024-03-25T16:44:02;13.60;59.10
37052;DHT22;22964;52.272;13.356;2024-03-25T16:46:27;13.50;59.30
37052;DHT22;22964;52.272;13.356;2024-03-25T16:48:53;13.50;59.50
37052;DHT22;22964;52.272;13.356;2024-03-25T16:51:19;13.50;59.80
37052;DHT22;22964;52.272;13.356;2024-03-25T16:53:44;13.50;60.00
37052;DHT22;22964;52.272;13.356;2024-03-25T16:56:10;13.50;60.10
37052;DHT22;22964;52.272;13.356;2024-03-25T16:58:36;13.50;60.20
37052;DHT22;22964;52.272;13.356;2024-03-25T17:01:02;13.50;60.40
37052;DHT22;22964;52.272;13.356;2024-03-25T17:03:30;13.50;60.40
37052;DHT22;22964;52.272;13.356;2024-03-25T17:05:55;13.50;60.40
37052;DHT22;22964;52.272;13.356;2024-03-25T17:08:21;13.50;60.30
37052;DHT22;22964;52.272;13.356;2024-03-25T17:10:47;13.50;60.30
37052;DHT22;22964;52.272;13.356;2024-03-25T17:13:13;13.50;60.50
37052;DHT22;22964;52.272;13.356;2024-03-25T17:15:39;13.50;60.30
37052;DHT22;22964;52.272;13.356;2024-03-25T17:18:09;13.50;60.30
37052;DHT22;22964;52.272;13.356;2024-03-25T17:20:35;13.50;60.20
37052;DHT22;22964;52.272;13.356;2024-03-25T17:23:01;13.50;60.60
37052;DHT22;22964;52.272;13.356;2024-03-25T17:25:26;13.50;61.40
37052;DHT22;22964;52.272;13.356;2024-03-25T17:27:52;13.50;60.60
37052;DHT22;22964;52.272;13.356;2024-03-25T17:30:18;13.40;60.70
37052;DHT22;22964;52.272;13.356;2024-03-25T17:32:44;13.30;60.80
37052;DHT22;22964;52.272;13.356;2024-03-25T17:35:10;13.30;61.00
37052;DHT22;22964;52.272;13.356;2024-03-25T17:37:36;13.30;61.10
37052;DHT22;22964;52.272;13.356;2024-03-25T17:40:02;13.20;62.00
37052;DHT22;22964;52.272;13.356;2024-03-25T17:42:28;13.10;61.30
37052;DHT22;22964;52.272;13.356;2024-03-25T17:44:54;13.10;61.40
37052;DHT22;22964;52.272;13.356;2024-03-25T17:47:19;13.00;61.40
37052;DHT22;22964;52.272;13.356;2024-03-25T17:49:47;13.00;61.50
37052;DHT22;22964;52.272;13.356;2024-03-25T17:52:13;12.90;61.50
37052;DHT22;22964;52.272;13.356;2024-03-25T17:54:39;12.80;61.50
37052;DHT22;22964;52.272;13.356;2024-03-25T17:57:04;12.80;61.60
37052;DHT22;22964;52.272;13.356;2024-03-25T17:59:30;12.70;61.70
37052;DHT22;22964;52.272;13.356;2024-03-25T18:01:56;12.70;61.80
37052;DHT22;22964;52.272;13.356;2024-03-25T18:04:21;12.60;61.90
37052;DHT22;22964;52.272;13.356;2024-03-25T18:06:47;12.50;61.90
37052;DHT22;22964;52.272;13.356;2024-03-25T18:09:13;12.40;61.90
37052;DHT22;22964;52.272;13.356;2024-03-25T18:11:38;12.40;62.00
37052;DHT22;22964;52.272;13.356;2024-03-25T18:14:04;12.30;61.90
37052;DHT22;22964;52.272;13.356;2024-03-25T18:16:30;12.20;62.10
37052;DHT22;22964;52.272;13.356;2024-03-25T18:18:55;12.10;62.20
37052;DHT22;22964;52.272;13.356;2024-03-25T18:21:21;12.10;62.60
37052;DHT22;22964;52.272;13.356;2024-03-25T18:23:47;12.00;62.60
37052;DHT22;22964;52.272;13.356;2024-03-25T18:26:13;11.90;62.70
37052;DHT22;22964;52.272;13.356;2024-03-25T18:28:41;11.80;62.80
37052;DHT22;22964;52.272;13.356;2024-03-25T18:31:06;11.80;62.80
37052;DHT22;22964;52.272;13.356;2024-03-25T18:33:35;11.70;62.80
37052;DHT22;22964;52.272;13.356;2024-03-25T18:36:01;11.70;62.90
37052;DHT22;22964;52.272;13.356;2024-03-25T18:38:27;11.60;63.00
37052;DHT22;22964;52.272;13.356;2024-03-25T18:40:53;11.50;62.90
37052;DHT22;22964;52.272;13.356;2024-03-25T18:43:19;11.40;62.80
37052;DHT22;22964;52.272;13.356;2024-03-25T18:45:45;11.40;62.80
37052;DHT22;22964;52.272;13.356;2024-03-25T18:48:11;11.30;62.80
37052;DHT22;22964;52.272;13.356;2024-03-25T18:50:36;11.20;63.00
37052;DHT22;22964;52.272;13.356;2024-03-25T18:53:02;11.10;63.20
37052;DHT22;22964;52.272;13.356;2024-03-25T18:55:28;11.00;63.50
37052;DHT22;22964;52.272;13.356;2024-03-25T18:57:54;10.90;63.50
37052;DHT22;22964;52.272;13.356;2024-03-25T19:00:19;10.90;63.80
37052;DHT22;22964;52.272;13.356;2024-03-25T19:02:45;10.80;64.00
37052;DHT22;22964;52.272;13.356;2024-03-25T19:05:11;10.80;64.20
37052;DHT22;22964;52.272;13.356;2024-03-25T19:07:37;10.70;64.30
37052;DHT22;22964;52.272;13.356;2024-03-25T19:10:03;10.60;64.30
37052;DHT22;22964;52.272;13.356;2024-03-25T19:12:30;10.60;64.50
37052;DHT22;22964;52.272;13.356;2024-03-25T19:14:55;10.50;64.50
37052;DHT22;22964;52.272;13.356;2024-03-25T19:17:21;10.40;64.50
37052;DHT22;22964;52.272;13.356;2024-03-25T19:19:47;10.40;64.50
37052;DHT22;22964;52.272;13.356;2024-03-25T19:22:13;10.30;64.50
37052;DHT22;22964;52.272;13.356;2024-03-25T19:24:38;10.30;64.70
37052;DHT22;22964;52.272;13.356;2024-03-25T19:27:04;10.20;64.60
37052;DHT22;22964;52.272;13.356;2024-03-25T19:29:30;10.20;64.60
37052;DHT22;22964;52.272;13.356;2024-03-25T19:31:56;10.10;64.50
37052;DHT22;22964;52.272;13.356;2024-03-25T19:34:23;10.00;64.60
37052;DHT22;22964;52.272;13.356;2024-03-25T19:36:49;9.90;64.70
37052;DHT22;22964;52.272;13.356;2024-03-25T19:39:15;9.90;64.80
37052;DHT22;22964;52.272;13.356;2024-03-25T19:41:41;9.80;65.00
37052;DHT22;22964;52.272;13.356;2024-03-25T19:44:07;9.80;65.20
37052;DHT22;22964;52.272;13.356;2024-03-25T19:46:32;9.70;65.40
37052;DHT22;22964;52.272;13.356;2024-03-25T19:48:58;9.70;65.60
37052;DHT22;22964;52.272;13.356;2024-03-25T19:51:24;9.60;65.70
37052;DHT22;22964;52.272;13.356;2024-03-25T19:53:50;9.50;65.70
37052;DHT22;22964;52.272;13.356;2024-03-25T19:56:15;9.50;65.90
37052;DHT22;22964;52.272;13.356;2024-03-25T19:58:41;9.50;66.00
37052;DHT22;22964;52.272;13.356;2024-03-25T20:01:09;9.40;66.20
37052;DHT22;22964;52.272;13.356;2024-03-25T20:03:35;9.40;66.40
37052;DHT22;22964;52.272;13.356;2024-03-25T20:06:02;9.30;66.40
37052;DHT22;22964;52.272;13.356;2024-03-25T20:08:31;9.30;66.60
37052;DHT22;22964;52.272;13.356;2024-03-25T20:10:57;9.20;66.70
37052;DHT22;22964;52.272;13.356;2024-03-25T20:13:23;9.20;66.70
37052;DHT22;22964;52.272;13.356;2024-03-25T20:15:48;9.20;66.70
37052;DHT22;22964;52.272;13.356;2024-03-25T20:18:14;9.10;66.70
37052;DHT22;22964;52.272;13.356;2024-03-25T20:20:40;9.10;66.80
37052;DHT22;22964;52.272;13.356;2024-03-25T20:23:07;9.00;67.00
37052;DHT22;22964;52.272;13.356;2024-03-25T20:25:32;9.00;67.10
37052;DHT22;22964;52.272;13.356;2024-03-25T20:27:58;9.00;67.20
37052;DHT22;22964;52.272;13.356;2024-03-25T20:30:24;8.90;67.20
37052;DHT22;22964;52.272;13.356;2024-03-25T20:32:50;8.90;67.20
37052;DHT22;22964;52.272;13.356;2024-03-25T20:35:16;8.90;67.40
37052;DHT22;22964;52.272;13.356;2024-03-25T20:37:42;8.90;67.50
37052;DHT22;22964;52.272;13.356;2024-03-25T20:40:08;8.80;67.40
37052;DHT22;22964;52.272;13.356;2024-03-25T20:42:33;8.80;67.50
37052;DHT22;22964;52.272;13.356;2024-03-25T20:44:59;8.70;67.50
37052;DHT22;22964;52.272;13.356;2024-03-25T20:47:25;8.70;67.60
37052;DHT22;22964;52.272;13.356;2024-03-25T20:49:51;8.70;67.70
37052;DHT22;22964;52.272;13.356;2024-03-25T20:52:16;8.60;67.80
37052;DHT22;22964;52.272;13.356;2024-03-25T20:54:42;8.60;67.80
37052;DHT22;22964;52.272;13.356;2024-03-25T20:57:08;8.60;68.00
37052;DHT22;22964;52.272;13.356;2024-03-25T20:59:34;8.60;68.20
37052;DHT22;22964;52.272;13.356;2024-03-25T21:01:59;8.50;68.20
37052;DHT22;22964;52.272;13.356;2024-03-25T21:04:25;8.50;68.40
37052;DHT22;22964;52.272;13.356;2024-03-25T21:06:51;8.50;68.30
37052;DHT22;22964;52.272;13.356;2024-03-25T21:09:17;8.50;68.50
37052;DHT22;22964;52.272;13.356;2024-03-25T21:11:42;8.40;68.30
37052;DHT22;22964;52.272;13.356;2024-03-25T21:14:08;8.40;68.30
37052;DHT22;22964;52.272;13.356;2024-03-25T21:16:34;8.40;68.30
37052;DHT22;22964;52.272;13.356;2024-03-25T21:19:00;8.40;68.30
37052;DHT22;22964;52.272;13.356;2024-03-25T21:21:25;8.30;68.20
37052;DHT22;22964;52.272;13.356;2024-03-25T21:23:51;8.20;68.20
37052;DHT22;22964;52.272;13.356;2024-03-25T21:26:17;8.20;68.30
37052;DHT22;22964;52.272;13.356;2024-03-25T21:28:43;8.20;68.40
37052;DHT22;22964;52.272;13.356;2024-03-25T21:31:09;8.10;68.30
37052;DHT22;22964;52.272;13.356;2024-03-25T21:33:39;8.10;68.30
37052;DHT22;22964;52.272;13.356;2024-03-25T21:36:04;8.10;68.40
37052;DHT22;22964;52.272;13.356;2024-03-25T21:38:30;8.00;68.60
37052;DHT22;22964;52.272;13.356;2024-03-25T21:40:56;8.00;68.70
37052;DHT22;22964;52.272;13.356;2024-03-25T21:43:22;7.90;68.80
37052;DHT22;22964;52.272;13.356;2024-03-25T21:45:49;7.90;69.00
37052;DHT22;22964;52.272;13.356;2024-03-25T21:48:15;7.90;69.40
37052;DHT22;22964;52.272;13.356;2024-03-25T21:50:52;7.80;69.60
37052;DHT22;22964;52.272;13.356;2024-03-25T21:53:17;7.90;70.00
37052;DHT22;22964;52.272;13.356;2024-03-25T21:55:43;7.80;70.20
37052;DHT22;22964;52.272;13.356;2024-03-25T21:58:09;7.80;70.30
37052;DHT22;22964;52.272;13.356;2024-03-25T22:00:34;7.80;70.50
37052;DHT22;22964;52.272;13.356;2024-03-25T22:03:00;7.80;70.50
37052;DHT22;22964;52.272;13.356;2024-03-25T22:05:26;7.80;70.50
37052;DHT22;22964;52.272;13.356;2024-03-25T22:07:51;7.80;70.50
37052;DHT22;22964;52.272;13.356;2024-03-25T22:10:17;7.70;70.30
37052;DHT22;22964;52.272;13.356;2024-03-25T22:12:43;7.70;70.10
37052;DHT22;22964;52.272;13.356;2024-03-25T22:15:08;7.70;70.00
37052;DHT22;22964;52.272;13.356;2024-03-25T22:17:34;7.70;69.80
37052;DHT22;22964;52.272;13.356;2024-03-25T22:20:00;7.60;69.60
37052;DHT22;22964;52.272;13.356;2024-03-25T22:22:26;7.60;69.60
37052;DHT22;22964;52.272;13.356;2024-03-25T22:24:52;7.60;69.60
37052;DHT22;22964;52.272;13.356;2024-03-25T22:27:18;7.60;69.60
37052;DHT22;22964;52.272;13.356;2024-03-25T22:29:47;7.50;69.50
37052;DHT22;22964;52.272;13.356;2024-03-25T22:32:13;7.50;69.60
37052;DHT22;22964;52.272;13.356;2024-03-25T22:34:39;7.50;70.40
37052;DHT22;22964;52.272;13.356;2024-03-25T22:37:08;7.50;69.60
37052;DHT22;22964;52.272;13.356;2024-03-25T22:39:34;7.40;69.60
37052;DHT22;22964;52.272;13.356;2024-03-25T22:42:06;7.40;69.50
37052;DHT22;22964;52.272;13.356;2024-03-25T22:44:31;7.30;69.60
37052;DHT22;22964;52.272;13.356;2024-03-25T22:46:57;7.30;69.70
37052;DHT22;22964;52.272;13.356;2024-03-25T22:49:23;7.30;69.70
37052;DHT22;22964;52.272;13.356;2024-03-25T22:51:49;7.30;69.70
37052;DHT22;22964;52.272;13.356;2024-03-25T22:54:15;7.20;69.60
37052;DHT22;22964;52.272;13.356;2024-03-25T22:56:41;7.10;69.50
37052;DHT22;22964;52.272;13.356;2024-03-25T22:59:06;7.10;69.50
37052;DHT22;22964;52.272;13.356;2024-03-25T23:01:32;7.10;69.60
37052;DHT22;22964;52.272;13.356;2024-03-25T23:03:58;7.10;69.60
37052;DHT22;22964;52.272;13.356;2024-03-25T23:06:23;7.10;69.60
37052;DHT22;22964;52.272;13.356;2024-03-25T23:08:49;7.00;70.30
37052;DHT22;22964;52.272;13.356;2024-03-25T23:11:15;7.00;69.40
37052;DHT22;22964;52.272;13.356;2024-03-25T23:13:40;6.90;69.90
37052;DHT22;22964;52.272;13.356;2024-03-25T23:16:06;6.90;69.70
37052;DHT22;22964;52.272;13.356;2024-03-25T23:18:32;6.90;69.80
37052;DHT22;22964;52.272;13.356;2024-03-25T23:21:02;6.90;69.90
37052;DHT22;22964;52.272;13.356;2024-03-25T23:23:28;6.80;70.00
37052;DHT22;22964;52.272;13.356;2024-03-25T23:25:53;6.70;70.00
37052;DHT22;22964;52.272;13.356;2024-03-25T23:28:19;6.80;70.00
37052;DHT22;22964;52.272;13.356;2024-03-25T23:30:45;6.70;70.90
37052;DHT22;22964;52.272;13.356;2024-03-25T23:33:10;6.70;70.10
37052;DHT22;22964;52.272;13.356;2024-03-25T23:35:36;6.60;70.20
37052;DHT22;22964;52.272;13.356;2024-03-25T23:38:03;6.50;70.20
37052;DHT22;22964;52.272;13.356;2024-03-25T23:40:29;6.50;70.80
37052;DHT22;22964;52.272;13.356;2024-03-25T23:43:01;6.50;71.40
37052;DHT22;22964;52.272;13.356;2024-03-25T23:45:26;6.50;72.30
37052;DHT22;22964;52.272;13.356;2024-03-25T23:47:53;6.50;72.70
37052;DHT22;22964;52.272;13.356;2024-03-25T23:50:18;6.50;73.20
37052;DHT22;22964;52.272;13.356;2024-03-25T23:52:44;6.50;73.70
37052;DHT22;22964;52.272;13.356;2024-03-25T23:55:10;6.50;74.20
37052;DHT22;22964;52.272;13.356;2024-03-25T23:57:36;6.50;74.50
